createdAt,value
2023-01-12T00:00:54.272Z,10.48
2023-01-12T00:03:21.509Z,10.85
2023-01-12T00:05:48.884Z,8.60
2023-01-12T00:08:15.882Z,8.23
2023-01-12T00:10:42.763Z,9.77
2023-01-12T00:13:09.709Z,8.93
2023-01-12T00:15:56.835Z,5.93
2023-01-12T00:18:23.720Z,11.05
2023-01-12T00:20:51.078Z,10.85
2023-01-12T00:23:18.094Z,8.90
2023-01-12T00:25:51.295Z,11.80
2023-01-12T00:28:18.425Z,9.18
2023-01-12T00:30:45.574Z,8.68
2023-01-12T00:33:14.247Z,9.20
2023-01-12T00:35:41.261Z,9.65
2023-01-12T00:38:08.633Z,10.88
2023-01-12T00:40:36.737Z,8.02
2023-01-12T00:43:23.135Z,8.80
2023-01-12T00:45:51.353Z,8.10
2023-01-12T00:48:18.413Z,8.43
2023-01-12T00:50:46.750Z,8.40
2023-01-12T00:53:13.909Z,10.30
2023-01-12T00:55:40.956Z,6.70
2023-01-12T00:58:07.794Z,12.45
2023-01-12T01:00:34.645Z,12.02
2023-01-12T01:03:01.665Z,10.50
2023-01-12T01:05:28.714Z,10.88
2023-01-12T01:07:55.720Z,7.40
2023-01-12T01:10:22.543Z,8.48
2023-01-12T01:12:49.434Z,6.95
2023-01-12T01:15:16.305Z,6.50
2023-01-12T01:17:43.119Z,8.60
2023-01-12T01:20:10.798Z,9.23
2023-01-12T01:22:37.758Z,10.68
2023-01-12T01:25:05.037Z,9.82
2023-01-12T01:27:32.428Z,11.18
2023-01-12T01:29:59.447Z,10.70
2023-01-12T01:32:27.064Z,7.95
2023-01-12T01:34:53.958Z,9.68
2023-01-12T01:37:21.898Z,10.88
2023-01-12T01:39:48.899Z,7.05
2023-01-12T01:42:30.795Z,5.22
2023-01-12T01:45:01.198Z,5.32
2023-01-12T01:47:36.865Z,4.65
2023-01-12T01:50:09.527Z,6.93
2023-01-12T01:52:45.270Z,5.13
2023-01-12T01:55:39.026Z,7.40
2023-01-12T01:58:15.356Z,4.38
2023-01-12T02:00:43.751Z,5.82
2023-01-12T02:03:13.279Z,6.20
2023-01-12T02:05:44.142Z,4.95
2023-01-12T02:08:36.369Z,4.68
2023-01-12T02:11:03.685Z,6.53
2023-01-12T02:13:49.885Z,6.45
2023-01-12T02:16:25.793Z,6.68
2023-01-12T02:19:21.717Z,5.18
2023-01-12T02:22:33.625Z,5.60
2023-01-12T02:25:37.462Z,6.00
2023-01-12T02:28:41.390Z,6.97
2023-01-12T02:31:42.792Z,5.55
2023-01-12T02:34:12.422Z,4.88
2023-01-12T02:36:58.709Z,4.63
2023-01-12T02:39:59.747Z,4.20
2023-01-12T02:42:41.894Z,4.72
2023-01-12T02:45:11.705Z,4.93
2023-01-12T02:47:59.481Z,3.03
2023-01-12T02:50:42.751Z,4.07
2023-01-12T02:53:23.058Z,4.32
2023-01-12T02:55:51.272Z,4.90
2023-01-12T02:58:21.657Z,6.63
2023-01-12T03:00:51.211Z,4.90
2023-01-12T03:03:19.443Z,6.53
2023-01-12T03:05:47.588Z,4.13
2023-01-12T03:08:18.706Z,3.22
2023-01-12T03:10:54.627Z,3.63
2023-01-12T03:13:23.308Z,6.50
2023-01-12T03:15:54.523Z,2.63
2023-01-12T03:18:30.454Z,2.13
2023-01-12T03:21:05.593Z,5.03
2023-01-12T03:23:53.375Z,4.25
2023-01-12T03:26:23.940Z,2.28
2023-01-12T03:28:56.314Z,2.22
2023-01-12T03:33:51.852Z,3.08
2023-01-12T03:36:39.928Z,3.58
2023-01-12T03:39:29.342Z,3.53
2023-01-12T03:42:25.758Z,3.35
2023-01-12T03:45:06.012Z,2.40
2023-01-12T03:47:33.894Z,2.47
2023-01-12T03:50:09.969Z,2.35
2023-01-12T03:52:39.536Z,2.63
2023-01-12T03:55:10.269Z,3.22
2023-01-12T03:57:38.719Z,5.47
2023-01-12T04:00:11.611Z,5.18
2023-01-12T04:02:38.477Z,2.15
2023-01-12T04:05:08.276Z,3.13
2023-01-12T04:07:35.241Z,3.72
2023-01-12T04:10:02.203Z,3.25
2023-01-12T04:12:30.322Z,2.22
2023-01-12T04:14:57.347Z,2.20
2023-01-12T04:17:25.480Z,1.30
2023-01-12T04:19:52.862Z,1.92
2023-01-12T04:22:38.208Z,2.38
2023-01-12T04:25:07.511Z,4.03
2023-01-12T04:27:35.449Z,1.75
2023-01-12T04:30:02.691Z,1.63
2023-01-12T04:32:29.507Z,1.80
2023-01-12T04:34:56.418Z,2.15
2023-01-12T04:37:23.271Z,2.70
2023-01-12T04:39:50.154Z,2.33
2023-01-12T04:42:35.370Z,1.63
2023-01-12T04:45:02.395Z,1.95
2023-01-12T04:47:29.493Z,3.53
2023-01-12T04:49:56.351Z,2.42
2023-01-12T04:52:23.227Z,4.72
2023-01-12T04:54:50.097Z,7.45
2023-01-12T04:57:16.890Z,4.88
2023-01-12T04:59:43.797Z,6.10
2023-01-12T05:02:10.767Z,3.85
2023-01-12T05:04:37.724Z,1.52
2023-01-12T05:07:04.593Z,1.67
2023-01-12T05:09:49.913Z,2.90
2023-01-12T05:12:16.818Z,1.77
2023-01-12T05:14:44.066Z,1.85
2023-01-12T05:17:10.969Z,1.50
2023-01-12T05:19:37.865Z,1.85
2023-01-12T05:22:04.743Z,1.67
2023-01-12T05:24:31.675Z,1.02
2023-01-12T05:26:58.611Z,1.25
2023-01-12T05:29:25.603Z,2.17
2023-01-12T05:31:52.839Z,4.93
2023-01-12T05:34:20.714Z,1.67
2023-01-12T05:36:48.673Z,1.75
2023-01-12T05:39:16.699Z,2.45
2023-01-12T05:42:03.585Z,2.78
2023-01-12T05:44:30.443Z,3.10
2023-01-12T05:46:57.300Z,2.28
2023-01-12T05:49:25.484Z,1.95
2023-01-12T05:51:52.688Z,3.83
2023-01-12T05:54:22.051Z,2.42
2023-01-12T05:56:49.923Z,2.88
2023-01-12T05:59:17.588Z,4.45
2023-01-12T06:01:44.555Z,1.75
2023-01-12T06:04:11.489Z,3.30
2023-01-12T06:06:38.492Z,1.98
2023-01-12T06:09:05.733Z,1.95
2023-01-12T06:11:52.214Z,1.98
2023-01-12T06:14:21.831Z,3.00
2023-01-12T06:16:48.800Z,2.42
2023-01-12T06:19:16.472Z,1.92
2023-01-12T06:21:43.444Z,1.90
2023-01-12T06:24:11.675Z,2.38
2023-01-12T06:26:40.125Z,7.10
2023-01-12T06:29:07.825Z,3.88
2023-01-12T06:31:38.631Z,3.05
2023-01-12T06:34:07.946Z,3.35
2023-01-12T06:36:35.809Z,5.45
2023-01-12T06:39:04.967Z,4.82
2023-01-12T06:41:53.255Z,4.05
2023-01-12T06:44:20.335Z,4.97
2023-01-12T06:46:47.705Z,3.08
2023-01-12T06:54:41.035Z,2.67
2023-01-12T06:57:08.042Z,2.60
2023-01-12T06:59:35.257Z,4.07
2023-01-12T07:02:12.785Z,4.35
2023-01-12T07:04:43.750Z,5.85
2023-01-12T07:07:13.475Z,6.38
2023-01-12T07:09:40.539Z,6.38
2023-01-12T07:12:12.377Z,4.10
2023-01-12T07:14:39.373Z,5.50
2023-01-12T07:17:06.231Z,10.27
2023-01-12T07:19:33.199Z,4.60
2023-01-12T07:22:00.062Z,5.85
2023-01-12T07:24:27.313Z,3.83
2023-01-12T07:27:00.339Z,5.53
2023-01-12T07:29:39.791Z,6.03
2023-01-12T07:34:51.505Z,7.93
2023-01-12T07:37:20.027Z,5.47
2023-01-12T07:39:47.003Z,6.20
2023-01-12T07:42:26.495Z,6.85
2023-01-12T07:44:58.800Z,6.95
2023-01-12T07:50:10.730Z,6.75
2023-01-12T07:52:40.941Z,4.85
2023-01-12T07:55:16.163Z,5.75
2023-01-12T07:57:44.918Z,8.75
2023-01-12T08:00:24.451Z,6.93
2023-01-12T08:02:52.923Z,9.30
2023-01-12T08:05:26.298Z,16.80
2023-01-12T08:07:53.450Z,7.20
2023-01-12T08:10:20.915Z,6.18
2023-01-12T08:12:52.183Z,8.50
2023-01-12T08:15:19.100Z,10.65
2023-01-12T08:18:05.875Z,5.22
2023-01-12T08:20:35.831Z,9.75
2023-01-12T08:23:14.015Z,8.77
2023-01-12T08:25:47.282Z,8.60
2023-01-12T08:28:19.507Z,11.15
2023-01-12T08:30:48.677Z,13.38
2023-01-12T08:33:16.148Z,19.23
2023-01-12T08:35:44.552Z,14.20
2023-01-12T08:38:13.091Z,8.95
2023-01-12T08:40:58.531Z,13.10
2023-01-12T08:43:43.729Z,43.25
2023-01-12T08:46:10.709Z,35.05
2023-01-12T08:48:38.094Z,31.10
2023-01-12T08:51:17.696Z,29.30
2023-01-12T08:53:44.721Z,11.73
2023-01-12T08:56:11.715Z,19.73
2023-01-12T08:58:39.070Z,26.27
2023-01-12T09:01:08.743Z,18.15
2023-01-12T09:03:47.784Z,20.30
2023-01-12T09:06:23.545Z,18.08
2023-01-12T09:09:00.117Z,25.10
2023-01-12T09:11:29.942Z,18.13
2023-01-12T09:13:59.319Z,27.23
2023-01-12T09:16:29.598Z,27.15
2023-01-12T09:18:56.975Z,23.52
2023-01-12T09:21:26.104Z,20.15
2023-01-12T09:24:00.953Z,21.00
2023-01-12T09:26:34.279Z,17.58
2023-01-12T09:29:04.180Z,21.83
2023-01-12T09:31:33.152Z,17.10
2023-01-12T09:34:00.154Z,23.42
2023-01-12T09:36:29.241Z,17.33
2023-01-12T09:38:57.115Z,17.30
2023-01-12T09:41:56.642Z,21.35
2023-01-12T09:44:53.651Z,19.25
2023-01-12T09:47:31.926Z,17.20
2023-01-12T09:50:09.224Z,13.52
2023-01-12T09:52:42.620Z,12.18
2023-01-12T09:55:19.216Z,13.43
2023-01-12T09:58:08.080Z,14.60
2023-01-12T10:00:35.382Z,11.30
2023-01-12T10:03:12.132Z,17.02
2023-01-12T10:05:54.704Z,12.63
2023-01-12T10:08:41.949Z,14.88
2023-01-12T10:11:16.701Z,11.27
2023-01-12T10:14:04.257Z,12.27
2023-01-12T10:16:50.391Z,12.68
2023-01-12T10:19:48.388Z,15.70
2023-01-12T10:22:39.814Z,19.20
2023-01-12T10:25:39.918Z,15.43
2023-01-12T10:28:25.746Z,15.02
2023-01-12T10:30:56.229Z,15.35
2023-01-12T10:33:34.745Z,17.10
2023-01-12T10:36:01.610Z,18.90
2023-01-12T10:38:32.445Z,20.85
2023-01-12T10:41:14.974Z,20.85
2023-01-12T10:43:44.160Z,17.83
2023-01-12T10:46:23.633Z,20.23
2023-01-12T10:48:54.929Z,20.50
2023-01-12T10:51:26.190Z,23.08
2023-01-12T10:54:20.211Z,17.45
2023-01-12T10:57:01.299Z,15.20
2023-01-12T10:59:33.751Z,19.23
2023-01-12T11:02:09.390Z,17.38
2023-01-12T11:04:41.149Z,16.88
2023-01-12T11:07:25.810Z,17.75
2023-01-12T11:09:57.772Z,17.23
2023-01-12T11:12:40.387Z,13.30
2023-01-12T11:15:11.063Z,16.33
2023-01-12T11:17:56.959Z,18.42
2023-01-12T11:20:50.589Z,27.83
2023-01-12T11:23:37.936Z,20.00
2023-01-12T11:26:24.126Z,18.95
2023-01-12T11:28:57.014Z,17.73
2023-01-12T11:31:38.991Z,12.75
2023-01-12T11:34:18.387Z,15.30
2023-01-12T11:37:00.889Z,14.73
2023-01-12T11:39:30.677Z,16.80
2023-01-12T11:42:18.461Z,13.93
2023-01-12T11:44:58.244Z,16.80
2023-01-12T11:47:35.603Z,28.40
2023-01-12T11:50:05.981Z,19.63
2023-01-12T11:52:33.324Z,20.10
2023-01-12T11:55:05.586Z,21.75
2023-01-12T12:00:13.609Z,20.65
2023-01-12T12:02:59.836Z,17.40
2023-01-12T12:05:47.660Z,20.98
2023-01-12T12:08:33.485Z,18.00
2023-01-12T12:11:25.066Z,15.98
2023-01-12T12:13:58.365Z,18.53
2023-01-12T12:16:32.048Z,14.30
2023-01-12T12:19:34.482Z,16.98
2023-01-12T12:22:22.909Z,18.25
2023-01-12T12:25:22.709Z,16.92
2023-01-12T12:27:52.258Z,14.35
2023-01-12T12:30:47.358Z,13.60
2023-01-12T12:33:40.162Z,17.85
2023-01-12T12:36:19.333Z,15.40
2023-01-12T12:39:13.024Z,14.07
2023-01-12T12:42:08.367Z,18.15
2023-01-12T12:45:25.636Z,17.05
2023-01-12T12:47:57.294Z,17.92
2023-01-12T12:50:28.037Z,23.38
2023-01-12T12:53:14.294Z,23.20
2023-01-12T12:55:42.424Z,23.75
2023-01-12T12:58:21.856Z,20.77
2023-01-12T13:01:15.064Z,24.27
2023-01-12T13:03:48.734Z,25.85
2023-01-12T13:06:49.011Z,22.27
2023-01-12T13:09:16.217Z,23.58
2023-01-12T13:11:54.410Z,21.58
2023-01-12T13:14:38.399Z,21.50
2023-01-12T13:17:21.758Z,20.50
2023-01-12T13:20:24.723Z,23.02
2023-01-12T13:22:52.210Z,19.48
2023-01-12T13:25:26.424Z,19.45
2023-01-12T13:28:11.099Z,20.38
2023-01-12T13:30:50.890Z,16.38
2023-01-12T13:33:24.631Z,28.65
2023-01-12T13:35:51.547Z,17.83
2023-01-12T13:38:44.738Z,17.08
2023-01-12T13:41:14.440Z,17.70
2023-01-12T13:43:55.281Z,14.52
2023-01-12T13:46:28.425Z,13.20
2023-01-12T13:48:56.438Z,15.20
2023-01-12T13:51:31.825Z,16.65
2023-01-12T13:54:07.087Z,15.32
2023-01-12T13:56:34.195Z,13.10
2023-01-12T13:59:07.748Z,19.50
2023-01-12T14:01:39.387Z,19.13
2023-01-12T14:04:17.385Z,50.92
2023-01-12T14:06:59.544Z,32.03
2023-01-12T14:09:57.226Z,16.20
2023-01-12T14:12:59.885Z,16.77
2023-01-12T14:15:57.478Z,15.63
2023-01-12T14:18:36.210Z,11.80
2023-01-12T14:21:03.231Z,13.80
2023-01-12T14:23:33.797Z,17.60
2023-01-12T14:26:09.759Z,16.88
2023-01-12T14:28:38.720Z,14.80
2023-01-12T14:31:10.283Z,95.03
2023-01-12T14:33:38.932Z,23.33
2023-01-12T14:36:24.370Z,14.55
2023-01-12T14:38:52.314Z,16.23
2023-01-12T14:41:46.410Z,16.70
2023-01-12T14:44:40.937Z,13.32
2023-01-12T14:47:08.474Z,13.88
2023-01-12T14:49:37.858Z,12.10
2023-01-12T14:52:16.093Z,18.13
2023-01-12T14:54:43.763Z,16.08
2023-01-12T14:57:37.326Z,15.93
2023-01-12T15:00:08.224Z,22.15
2023-01-12T15:02:42.129Z,21.98
2023-01-12T15:05:08.883Z,18.42
2023-01-12T15:07:37.728Z,20.08
2023-01-12T15:10:10.587Z,12.45
2023-01-12T15:12:45.335Z,14.10
2023-01-12T15:15:52.490Z,14.10
2023-01-12T15:18:38.012Z,14.43
2023-01-12T15:21:26.519Z,15.10
2023-01-12T15:24:11.914Z,21.70
2023-01-12T15:26:38.948Z,13.77
2023-01-12T15:29:05.781Z,17.48
2023-01-12T15:31:39.410Z,23.77
2023-01-12T15:34:06.702Z,16.52
2023-01-12T15:36:33.481Z,17.38
2023-01-12T15:39:01.793Z,13.95
2023-01-12T15:41:49.690Z,18.40
2023-01-12T15:44:19.038Z,23.60
2023-01-12T15:46:46.402Z,27.15
2023-01-12T15:49:14.367Z,23.33
2023-01-12T15:51:44.332Z,31.75
2023-01-12T15:54:13.477Z,27.70
2023-01-12T15:56:40.644Z,39.10
2023-01-12T15:59:07.547Z,39.30
2023-01-12T16:01:44.261Z,38.65
2023-01-12T16:04:42.271Z,43.88
2023-01-12T16:07:09.551Z,46.72
2023-01-12T16:09:36.470Z,40.40
2023-01-12T16:12:03.397Z,36.65
2023-01-12T16:14:31.217Z,30.65
2023-01-12T16:17:04.040Z,36.13
2023-01-12T16:19:42.411Z,37.30
2023-01-12T16:22:27.473Z,26.25
2023-01-12T16:24:56.358Z,35.17
2023-01-12T16:27:25.490Z,35.97
2023-01-12T16:29:54.374Z,36.10
2023-01-12T16:32:26.264Z,42.40
2023-01-12T16:34:53.461Z,38.28
2023-01-12T16:40:06.178Z,55.55
2023-01-12T16:42:33.298Z,60.92
2023-01-12T16:45:00.418Z,171.50
2023-01-12T16:47:27.312Z,228.13
2023-01-12T16:49:55.777Z,121.97
2023-01-12T16:52:23.804Z,114.07
2023-01-12T16:54:50.773Z,51.72
2023-01-12T16:57:20.707Z,35.97
2023-01-12T16:59:51.386Z,32.35
2023-01-12T17:02:24.553Z,28.58
2023-01-12T17:08:02.683Z,22.92
2023-01-12T17:10:37.873Z,32.83
2023-01-12T17:13:08.386Z,31.17
2023-01-12T17:15:36.070Z,33.75
2023-01-12T17:18:03.744Z,28.58
2023-01-12T17:20:31.756Z,26.10
2023-01-12T17:23:25.944Z,28.90
2023-01-12T17:25:58.352Z,32.95
2023-01-12T17:30:54.126Z,26.98
2023-01-12T17:33:21.698Z,30.63
2023-01-12T17:35:52.991Z,18.85
2023-01-12T17:38:41.074Z,15.15
2023-01-12T17:41:29.885Z,12.25
2023-01-12T17:44:12.829Z,11.93
2023-01-12T17:47:05.792Z,15.43
2023-01-12T18:01:23.163Z,16.45
2023-01-12T18:03:50.534Z,22.92
2023-01-12T18:09:07.044Z,11.05
2023-01-12T18:11:35.370Z,18.95
2023-01-12T18:14:03.753Z,16.33
2023-01-12T18:24:35.226Z,13.77
2023-01-12T18:27:03.766Z,16.85
2023-01-12T18:29:31.010Z,16.58
2023-01-12T18:32:47.316Z,19.70
2023-01-12T18:38:33.505Z,42.03
2023-01-12T18:42:04.211Z,27.88
2023-01-12T18:44:42.701Z,23.45
2023-01-12T18:47:33.233Z,18.48
2023-01-12T18:50:39.495Z,34.97
2023-01-12T18:53:34.292Z,17.45
2023-01-12T18:56:30.582Z,18.20
2023-01-12T18:58:57.897Z,42.63
2023-01-12T19:01:25.700Z,20.80
2023-01-12T19:03:57.653Z,25.38
2023-01-12T19:06:46.166Z,21.15
2023-01-12T19:09:33.562Z,20.98
2023-01-12T19:12:02.184Z,20.98
2023-01-12T19:17:44.072Z,18.58
2023-01-12T19:23:16.003Z,16.10
2023-01-12T19:26:09.157Z,14.52
2023-01-12T19:31:30.521Z,13.55
2023-01-12T19:39:46.642Z,12.82
2023-01-12T19:45:24.591Z,17.02
2023-01-12T19:58:43.245Z,14.00
2023-01-12T20:01:14.151Z,14.30
2023-01-12T20:03:49.080Z,14.32
2023-01-12T20:06:17.666Z,13.85
2023-01-12T20:08:45.961Z,14.60
2023-01-12T20:11:19.408Z,13.70
2023-01-12T20:13:46.452Z,18.58
2023-01-12T20:16:13.951Z,20.00
2023-01-12T20:18:43.542Z,19.42
2023-01-12T20:21:17.276Z,16.13
2023-01-12T20:23:48.621Z,16.02
2023-01-12T20:26:15.682Z,16.52
2023-01-12T20:28:48.465Z,13.32
2023-01-12T20:37:07.662Z,11.85
2023-01-12T20:39:42.317Z,15.90
2023-01-12T20:44:51.924Z,16.73
2023-01-12T20:50:10.695Z,17.02
2023-01-12T20:52:37.861Z,18.48
2023-01-12T20:57:54.588Z,22.33
2023-01-12T21:00:22.850Z,15.25
2023-01-12T21:02:51.465Z,14.55
2023-01-12T21:05:25.640Z,14.60
2023-01-12T21:08:00.064Z,16.27
2023-01-12T21:10:39.856Z,16.48
2023-01-12T21:13:08.362Z,10.68
2023-01-12T21:15:48.009Z,9.80
2023-01-12T21:18:15.198Z,8.95
2023-01-12T21:20:51.097Z,10.10
2023-01-12T21:23:20.655Z,10.00
2023-01-12T21:25:48.014Z,12.80
2023-01-12T21:28:18.841Z,23.33
2023-01-12T21:30:46.081Z,13.90
2023-01-12T21:33:13.992Z,22.50
2023-01-12T21:35:45.082Z,33.30
2023-01-12T21:38:12.157Z,19.55
2023-01-12T21:40:39.619Z,10.13
2023-01-12T21:43:13.753Z,18.58
2023-01-12T21:45:43.708Z,14.32
2023-01-12T21:48:12.378Z,17.60
2023-01-12T21:53:22.498Z,14.63
2023-01-12T21:56:15.754Z,15.95
2023-01-12T21:58:44.350Z,13.80
2023-01-12T22:01:56.775Z,15.13
2023-01-12T22:07:16.927Z,18.15
2023-01-12T22:15:15.000Z,22.48
2023-01-12T22:17:42.983Z,24.77
2023-01-12T22:20:12.276Z,26.42
2023-01-12T22:28:14.230Z,43.20
2023-01-12T22:30:43.635Z,32.15
2023-01-12T22:33:12.290Z,26.75
2023-01-12T22:35:40.164Z,27.85
2023-01-12T22:38:12.691Z,24.45
2023-01-12T22:40:39.809Z,26.92
2023-01-12T22:43:29.564Z,23.85
2023-01-12T22:46:13.560Z,15.18
2023-01-12T22:48:43.736Z,22.67
2023-01-12T22:51:11.032Z,16.77
2023-01-12T22:53:42.713Z,22.75
2023-01-12T22:56:10.781Z,27.63
2023-01-12T22:58:38.351Z,23.52
2023-01-12T23:01:09.944Z,21.98
2023-01-12T23:03:38.268Z,21.35
2023-01-12T23:06:06.012Z,21.75
2023-01-12T23:08:33.093Z,21.50
2023-01-12T23:11:30.057Z,19.50
2023-01-12T23:13:57.148Z,22.30
2023-01-12T23:16:24.765Z,23.85
2023-01-12T23:18:55.123Z,16.33
2023-01-12T23:21:25.064Z,24.83
2023-01-12T23:23:55.879Z,14.27
2023-01-12T23:26:32.601Z,10.18
2023-01-12T23:29:01.234Z,9.40
2023-01-12T23:31:31.475Z,10.63
2023-01-12T23:33:58.489Z,6.93
2023-01-12T23:36:29.257Z,9.43
2023-01-12T23:39:03.689Z,7.95
2023-01-12T23:41:33.199Z,6.35
2023-01-12T23:44:02.118Z,7.88
2023-01-12T23:46:34.905Z,7.95
2023-01-12T23:49:03.696Z,7.47
2023-01-12T23:51:31.484Z,6.82
2023-01-12T23:54:00.750Z,7.80
2023-01-12T23:56:33.856Z,7.68
2023-01-12T23:59:01.340Z,8.98
